sensor_id;sensor_type;location;lat;lon;timestamp;temperature;humidity
72576;DHT22;60613;48.658;2.328;2023-04-25T06:02:37;20.70;40.30
72576;DHT22;60613;48.658;2.328;2023-04-25T06:05:03;20.60;41.40
72576;DHT22;60613;48.658;2.328;2023-04-25T06:07:29;20.70;41.30
72576;DHT22;60613;48.658;2.328;2023-04-25T06:09:56;20.60;41.20
72576;DHT22;60613;48.658;2.328;2023-04-25T06:12:21;20.60;41.20
72576;DHT22;60613;48.658;2.328;2023-04-25T06:14:47;20.60;41.20
72576;DHT22;60613;48.658;2.328;2023-04-25T06:17:13;20.70;41.10
72576;DHT22;60613;48.658;2.328;2023-04-25T06:19:39;20.70;41.00
72576;DHT22;60613;48.658;2.328;2023-04-25T06:22:04;20.70;40.90
72576;DHT22;60613;48.658;2.328;2023-04-25T06:24:30;20.70;41.00
72576;DHT22;60613;48.658;2.328;2023-04-25T06:26:55;20.80;41.00
72576;DHT22;60613;48.658;2.328;2023-04-25T06:29:21;20.80;40.90
72576;DHT22;60613;48.658;2.328;2023-04-25T06:31:47;20.80;40.80
72576;DHT22;60613;48.658;2.328;2023-04-25T06:34:12;20.80;40.80
72576;DHT22;60613;48.658;2.328;2023-04-25T06:36:38;20.80;41.90
72576;DHT22;60613;48.658;2.328;2023-04-25T06:39:04;20.80;40.70
72576;DHT22;60613;48.658;2.328;2023-04-25T06:41:30;20.90;40.80
72576;DHT22;60613;48.658;2.328;2023-04-25T06:43:55;20.90;40.70
72576;DHT22;60613;48.658;2.328;2023-04-25T06:46:21;21.00;40.50
72576;DHT22;60613;48.658;2.328;2023-04-25T06:48:46;21.00;40.40
72576;DHT22;60613;48.658;2.328;2023-04-25T06:51:12;21.10;40.40
72576;DHT22;60613;48.658;2.328;2023-04-25T06:53:39;21.10;40.40
72576;DHT22;60613;48.658;2.328;2023-04-25T06:56:05;21.10;40.30
72576;DHT22;60613;48.658;2.328;2023-04-25T06:58:30;21.10;40.30
72576;DHT22;60613;48.658;2.328;2023-04-25T07:00:56;21.10;40.40
72576;DHT22;60613;48.658;2.328;2023-04-25T07:03:21;21.20;40.30
72576;DHT22;60613;48.658;2.328;2023-04-25T07:05:47;21.20;40.20
72576;DHT22;60613;48.658;2.328;2023-04-25T07:08:12;21.20;40.30
72576;DHT22;60613;48.658;2.328;2023-04-25T07:10:39;21.20;40.30
72576;DHT22;60613;48.658;2.328;2023-04-25T07:13:05;21.20;40.20
72576;DHT22;60613;48.658;2.328;2023-04-25T07:15:31;21.20;40.30
72576;DHT22;60613;48.658;2.328;2023-04-25T07:17:56;21.30;40.30
72576;DHT22;60613;48.658;2.328;2023-04-25T07:20:22;21.20;40.10
72576;DHT22;60613;48.658;2.328;2023-04-25T07:22:47;21.20;39.50
72576;DHT22;60613;48.658;2.328;2023-04-25T07:25:13;20.90;39.20
72576;DHT22;60613;48.658;2.328;2023-04-25T07:27:39;20.60;39.40
72576;DHT22;60613;48.658;2.328;2023-04-25T07:30:05;20.40;40.00
72576;DHT22;60613;48.658;2.328;2023-04-25T07:32:31;20.20;41.30
72576;DHT22;60613;48.658;2.328;2023-04-25T07:34:57;20.10;41.70
72576;DHT22;60613;48.658;2.328;2023-04-25T07:37:22;19.90;41.30
72576;DHT22;60613;48.658;2.328;2023-04-25T07:39:48;19.90;41.30
72576;DHT22;60613;48.658;2.328;2023-04-25T07:42:14;19.80;41.30
72576;DHT22;60613;48.658;2.328;2023-04-25T07:44:40;19.70;41.20
72576;DHT22;60613;48.658;2.328;2023-04-25T07:47:06;19.70;41.70
72576;DHT22;60613;48.658;2.328;2023-04-25T07:49:36;19.70;42.30
72576;DHT22;60613;48.658;2.328;2023-04-25T07:52:03;20.00;42.40
72576;DHT22;60613;48.658;2.328;2023-04-25T07:54:29;20.20;42.20
72576;DHT22;60613;48.658;2.328;2023-04-25T07:56:55;20.30;42.10
72576;DHT22;60613;48.658;2.328;2023-04-25T07:59:21;20.50;42.10
72576;DHT22;60613;48.658;2.328;2023-04-25T08:01:47;20.60;43.30
72576;DHT22;60613;48.658;2.328;2023-04-25T08:04:13;20.70;44.40
72576;DHT22;60613;48.658;2.328;2023-04-25T08:06:39;20.80;44.90
72576;DHT22;60613;48.658;2.328;2023-04-25T08:09:06;20.80;44.90
72576;DHT22;60613;48.658;2.328;2023-04-25T08:11:32;20.90;44.50
72576;DHT22;60613;48.658;2.328;2023-04-25T08:13:57;20.90;44.50
72576;DHT22;60613;48.658;2.328;2023-04-25T08:16:23;21.00;44.10
72576;DHT22;60613;48.658;2.328;2023-04-25T08:18:50;21.00;43.80
72576;DHT22;60613;48.658;2.328;2023-04-25T08:21:15;21.00;44.80
72576;DHT22;60613;48.658;2.328;2023-04-25T08:23:41;21.00;43.50
72576;DHT22;60613;48.658;2.328;2023-04-25T08:26:07;21.10;43.80
72576;DHT22;60613;48.658;2.328;2023-04-25T08:28:32;21.10;43.50
72576;DHT22;60613;48.658;2.328;2023-04-25T08:30:58;21.10;43.20
72576;DHT22;60613;48.658;2.328;2023-04-25T08:33:24;21.10;43.20
72576;DHT22;60613;48.658;2.328;2023-04-25T08:35:50;21.10;42.80
72576;DHT22;60613;48.658;2.328;2023-04-25T08:38:17;21.20;42.60
72576;DHT22;60613;48.658;2.328;2023-04-25T08:40:43;21.20;42.50
72576;DHT22;60613;48.658;2.328;2023-04-25T08:43:09;21.20;42.30
72576;DHT22;60613;48.658;2.328;2023-04-25T08:45:42;21.20;42.30
72576;DHT22;60613;48.658;2.328;2023-04-25T08:48:11;21.20;42.20
72576;DHT22;60613;48.658;2.328;2023-04-25T08:50:40;21.20;42.10
72576;DHT22;60613;48.658;2.328;2023-04-25T08:53:09;21.30;42.20
72576;DHT22;60613;48.658;2.328;2023-04-25T08:55:41;21.40;41.90
72576;DHT22;60613;48.658;2.328;2023-04-25T08:58:07;21.40;41.80
72576;DHT22;60613;48.658;2.328;2023-04-25T09:00:35;21.40;41.70
72576;DHT22;60613;48.658;2.328;2023-04-25T09:03:01;21.40;41.60
72576;DHT22;60613;48.658;2.328;2023-04-25T09:05:28;21.40;41.60
72576;DHT22;60613;48.658;2.328;2023-04-25T09:07:54;21.50;41.50
72576;DHT22;60613;48.658;2.328;2023-04-25T09:10:21;21.40;41.30
72576;DHT22;60613;48.658;2.328;2023-04-25T09:13:11;21.50;41.20
72576;DHT22;60613;48.658;2.328;2023-04-25T09:15:51;21.50;41.10
72576;DHT22;60613;48.658;2.328;2023-04-25T09:21:04;21.50;40.90
72576;DHT22;60613;48.658;2.328;2023-04-25T09:23:31;21.50;40.90
72576;DHT22;60613;48.658;2.328;2023-04-25T09:26:03;21.60;40.80
72576;DHT22;60613;48.658;2.328;2023-04-25T09:28:31;21.60;40.70
72576;DHT22;60613;48.658;2.328;2023-04-25T09:30:57;21.60;40.70
72576;DHT22;60613;48.658;2.328;2023-04-25T09:33:33;21.60;40.60
72576;DHT22;60613;48.658;2.328;2023-04-25T09:36:06;21.60;40.50
72576;DHT22;60613;48.658;2.328;2023-04-25T09:38:40;21.60;40.50
72576;DHT22;60613;48.658;2.328;2023-04-25T09:41:07;21.60;40.40
72576;DHT22;60613;48.658;2.328;2023-04-25T09:43:33;21.60;40.40
72576;DHT22;60613;48.658;2.328;2023-04-25T09:45:59;21.60;40.30
72576;DHT22;60613;48.658;2.328;2023-04-25T09:48:27;21.60;40.30
72576;DHT22;60613;48.658;2.328;2023-04-25T09:51:13;21.60;40.10
72576;DHT22;60613;48.658;2.328;2023-04-25T09:53:41;21.60;40.10
72576;DHT22;60613;48.658;2.328;2023-04-25T09:56:08;21.70;40.20
72576;DHT22;60613;48.658;2.328;2023-04-25T09:58:36;21.70;40.10
72576;DHT22;60613;48.658;2.328;2023-04-25T10:01:04;21.70;40.10
72576;DHT22;60613;48.658;2.328;2023-04-25T10:03:32;21.70;40.10
72576;DHT22;60613;48.658;2.328;2023-04-25T10:06:02;21.70;40.00
72576;DHT22;60613;48.658;2.328;2023-04-25T10:08:35;21.70;40.00
72576;DHT22;60613;48.658;2.328;2023-04-25T10:11:03;21.70;39.90
72576;DHT22;60613;48.658;2.328;2023-04-25T10:13:30;21.70;39.80
72576;DHT22;60613;48.658;2.328;2023-04-25T10:16:00;21.70;39.70
72576;DHT22;60613;48.658;2.328;2023-04-25T10:18:27;21.80;39.70
72576;DHT22;60613;48.658;2.328;2023-04-25T10:21:01;21.70;39.60
72576;DHT22;60613;48.658;2.328;2023-04-25T10:23:29;21.70;39.70
72576;DHT22;60613;48.658;2.328;2023-04-25T10:25:55;21.70;39.60
72576;DHT22;60613;48.658;2.328;2023-04-25T10:28:21;21.70;39.60
72576;DHT22;60613;48.658;2.328;2023-04-25T10:31:00;21.70;39.60
72576;DHT22;60613;48.658;2.328;2023-04-25T10:33:38;21.80;39.70
72576;DHT22;60613;48.658;2.328;2023-04-25T10:36:17;21.70;39.60
72576;DHT22;60613;48.658;2.328;2023-04-25T10:38:44;21.80;39.60
72576;DHT22;60613;48.658;2.328;2023-04-25T10:41:11;21.80;39.50
72576;DHT22;60613;48.658;2.328;2023-04-25T10:43:38;21.80;39.40
72576;DHT22;60613;48.658;2.328;2023-04-25T10:46:23;21.80;39.40
72576;DHT22;60613;48.658;2.328;2023-04-25T10:48:51;21.80;39.40
72576;DHT22;60613;48.658;2.328;2023-04-25T10:51:22;21.70;39.30
72576;DHT22;60613;48.658;2.328;2023-04-25T10:54:03;21.80;39.30
72576;DHT22;60613;48.658;2.328;2023-04-25T10:56:33;21.80;39.30
72576;DHT22;60613;48.658;2.328;2023-04-25T10:59:14;21.80;39.40
72576;DHT22;60613;48.658;2.328;2023-04-25T11:01:42;21.80;39.40
72576;DHT22;60613;48.658;2.328;2023-04-25T11:04:24;21.80;39.40
72576;DHT22;60613;48.658;2.328;2023-04-25T11:07:18;21.70;39.30
72576;DHT22;60613;48.658;2.328;2023-04-25T11:09:48;21.80;39.30
72576;DHT22;60613;48.658;2.328;2023-04-25T11:12:14;21.80;40.50
72576;DHT22;60613;48.658;2.328;2023-04-25T11:14:40;21.80;39.30
72576;DHT22;60613;48.658;2.328;2023-04-25T11:17:06;21.80;39.20
72576;DHT22;60613;48.658;2.328;2023-04-25T11:19:32;21.80;39.20
72576;DHT22;60613;48.658;2.328;2023-04-25T11:22:01;21.80;39.20
72576;DHT22;60613;48.658;2.328;2023-04-25T11:24:31;21.80;39.20
72576;DHT22;60613;48.658;2.328;2023-04-25T11:27:01;21.80;39.20
72576;DHT22;60613;48.658;2.328;2023-04-25T11:29:32;21.80;39.20
72576;DHT22;60613;48.658;2.328;2023-04-25T11:31:58;21.80;39.20
72576;DHT22;60613;48.658;2.328;2023-04-25T11:34:24;21.80;39.20
72576;DHT22;60613;48.658;2.328;2023-04-25T11:36:51;21.80;39.20
72576;DHT22;60613;48.658;2.328;2023-04-25T11:39:20;21.80;39.20
72576;DHT22;60613;48.658;2.328;2023-04-25T11:41:46;21.80;39.20
72576;DHT22;60613;48.658;2.328;2023-04-25T11:44:15;21.80;39.10
72576;DHT22;60613;48.658;2.328;2023-04-25T11:46:42;21.80;39.20
72576;DHT22;60613;48.658;2.328;2023-04-25T11:49:08;21.80;39.20
72576;DHT22;60613;48.658;2.328;2023-04-25T11:51:45;21.80;39.20
72576;DHT22;60613;48.658;2.328;2023-04-25T11:54:11;21.80;39.40
72576;DHT22;60613;48.658;2.328;2023-04-25T11:56:40;21.80;39.80
72576;DHT22;60613;48.658;2.328;2023-04-25T11:59:06;21.80;40.70
72576;DHT22;60613;48.658;2.328;2023-04-25T12:01:37;21.90;40.70
72576;DHT22;60613;48.658;2.328;2023-04-25T12:06:43;21.90;41.00
72576;DHT22;60613;48.658;2.328;2023-04-25T12:09:10;21.90;40.80
72576;DHT22;60613;48.658;2.328;2023-04-25T12:11:47;21.90;40.80
72576;DHT22;60613;48.658;2.328;2023-04-25T12:14:21;21.80;40.70
72576;DHT22;60613;48.658;2.328;2023-04-25T12:16:50;21.80;40.70
72576;DHT22;60613;48.658;2.328;2023-04-25T12:19:19;21.80;40.70
72576;DHT22;60613;48.658;2.328;2023-04-25T12:21:45;21.80;40.70
72576;DHT22;60613;48.658;2.328;2023-04-25T12:24:21;21.90;40.60
72576;DHT22;60613;48.658;2.328;2023-04-25T12:29:22;21.80;40.50
72576;DHT22;60613;48.658;2.328;2023-04-25T12:31:48;21.90;40.40
72576;DHT22;60613;48.658;2.328;2023-04-25T12:34:14;21.80;40.50
72576;DHT22;60613;48.658;2.328;2023-04-25T12:36:40;21.80;40.30
72576;DHT22;60613;48.658;2.328;2023-04-25T12:39:06;21.80;40.30
72576;DHT22;60613;48.658;2.328;2023-04-25T12:41:32;21.80;40.30
72576;DHT22;60613;48.658;2.328;2023-04-25T12:43:58;21.80;40.50
72576;DHT22;60613;48.658;2.328;2023-04-25T12:46:23;21.80;40.40
72576;DHT22;60613;48.658;2.328;2023-04-25T12:48:49;21.80;40.40
72576;DHT22;60613;48.658;2.328;2023-04-25T12:51:15;21.80;40.40
72576;DHT22;60613;48.658;2.328;2023-04-25T12:53:41;21.80;40.40
72576;DHT22;60613;48.658;2.328;2023-04-25T12:56:07;21.80;40.40
72576;DHT22;60613;48.658;2.328;2023-04-25T12:58:33;21.70;40.20
72576;DHT22;60613;48.658;2.328;2023-04-25T13:00:59;21.70;40.30
72576;DHT22;60613;48.658;2.328;2023-04-25T13:03:25;21.80;40.30
72576;DHT22;60613;48.658;2.328;2023-04-25T13:05:51;21.80;40.30
72576;DHT22;60613;48.658;2.328;2023-04-25T13:08:18;21.80;40.30
72576;DHT22;60613;48.658;2.328;2023-04-25T13:10:44;21.80;40.50
72576;DHT22;60613;48.658;2.328;2023-04-25T13:13:10;21.80;40.20
72576;DHT22;60613;48.658;2.328;2023-04-25T13:15:35;21.80;40.30
72576;DHT22;60613;48.658;2.328;2023-04-25T13:18:03;21.80;40.30
72576;DHT22;60613;48.658;2.328;2023-04-25T13:20:29;21.80;40.40
72576;DHT22;60613;48.658;2.328;2023-04-25T13:22:54;21.80;40.60
72576;DHT22;60613;48.658;2.328;2023-04-25T13:25:20;21.80;40.30
72576;DHT22;60613;48.658;2.328;2023-04-25T13:27:47;21.80;40.30
72576;DHT22;60613;48.658;2.328;2023-04-25T13:30:13;21.80;40.30
72576;DHT22;60613;48.658;2.328;2023-04-25T13:32:38;21.80;40.30
72576;DHT22;60613;48.658;2.328;2023-04-25T13:35:09;21.80;40.30
72576;DHT22;60613;48.658;2.328;2023-04-25T13:37:36;21.80;40.40
72576;DHT22;60613;48.658;2.328;2023-04-25T13:40:05;21.80;40.30
72576;DHT22;60613;48.658;2.328;2023-04-25T13:42:31;21.80;40.20
72576;DHT22;60613;48.658;2.328;2023-04-25T13:44:57;21.80;40.30
72576;DHT22;60613;48.658;2.328;2023-04-25T13:47:26;21.80;40.20
72576;DHT22;60613;48.658;2.328;2023-04-25T13:49:52;21.80;40.30
72576;DHT22;60613;48.658;2.328;2023-04-25T13:52:17;21.80;41.10
72576;DHT22;60613;48.658;2.328;2023-04-25T13:54:43;21.90;41.00
72576;DHT22;60613;48.658;2.328;2023-04-25T13:57:09;21.90;41.20
72576;DHT22;60613;48.658;2.328;2023-04-25T13:59:36;21.90;41.00
72576;DHT22;60613;48.658;2.328;2023-04-25T14:02:02;21.90;40.70
72576;DHT22;60613;48.658;2.328;2023-04-25T14:04:28;22.00;40.60
72576;DHT22;60613;48.658;2.328;2023-04-25T14:06:53;21.90;40.70
72576;DHT22;60613;48.658;2.328;2023-04-25T14:09:19;21.90;40.40
72576;DHT22;60613;48.658;2.328;2023-04-25T14:11:47;21.90;40.30
72576;DHT22;60613;48.658;2.328;2023-04-25T14:14:13;21.90;40.30
72576;DHT22;60613;48.658;2.328;2023-04-25T14:16:41;21.90;40.30
72576;DHT22;60613;48.658;2.328;2023-04-25T14:19:07;21.90;40.30
72576;DHT22;60613;48.658;2.328;2023-04-25T14:21:32;21.90;40.30
72576;DHT22;60613;48.658;2.328;2023-04-25T14:23:58;21.90;40.40
72576;DHT22;60613;48.658;2.328;2023-04-25T14:26:24;21.90;40.80
72576;DHT22;60613;48.658;2.328;2023-04-25T14:28:51;22.00;40.70
72576;DHT22;60613;48.658;2.328;2023-04-25T14:31:16;22.00;41.60
72576;DHT22;60613;48.658;2.328;2023-04-25T14:33:42;22.00;40.40
72576;DHT22;60613;48.658;2.328;2023-04-25T14:36:09;21.90;40.50
72576;DHT22;60613;48.658;2.328;2023-04-25T14:38:34;21.90;40.60
72576;DHT22;60613;48.658;2.328;2023-04-25T14:41:00;21.90;40.60
72576;DHT22;60613;48.658;2.328;2023-04-25T14:43:26;21.90;40.60
72576;DHT22;60613;48.658;2.328;2023-04-25T14:45:51;21.90;40.60
72576;DHT22;60613;48.658;2.328;2023-04-25T14:48:18;21.90;40.50
72576;DHT22;60613;48.658;2.328;2023-04-25T14:50:47;21.90;40.60
72576;DHT22;60613;48.658;2.328;2023-04-25T14:53:13;21.90;40.70
72576;DHT22;60613;48.658;2.328;2023-04-25T14:55:39;21.90;40.60
72576;DHT22;60613;48.658;2.328;2023-04-25T14:58:05;21.90;40.60
72576;DHT22;60613;48.658;2.328;2023-04-25T15:00:32;21.90;40.70
72576;DHT22;60613;48.658;2.328;2023-04-25T15:02:58;21.90;40.80
72576;DHT22;60613;48.658;2.328;2023-04-25T15:05:24;22.00;41.90
72576;DHT22;60613;48.658;2.328;2023-04-25T15:07:50;22.00;40.60
72576;DHT22;60613;48.658;2.328;2023-04-25T15:10:17;21.90;41.00
72576;DHT22;60613;48.658;2.328;2023-04-25T15:12:43;21.90;40.80
72576;DHT22;60613;48.658;2.328;2023-04-25T15:15:09;21.90;40.90
72576;DHT22;60613;48.658;2.328;2023-04-25T15:17:40;22.00;41.00
72576;DHT22;60613;48.658;2.328;2023-04-25T15:20:07;21.90;40.80
72576;DHT22;60613;48.658;2.328;2023-04-25T15:22:33;21.90;40.80
72576;DHT22;60613;48.658;2.328;2023-04-25T15:24:58;22.00;41.00
72576;DHT22;60613;48.658;2.328;2023-04-25T15:27:24;22.00;40.60
72576;DHT22;60613;48.658;2.328;2023-04-25T15:29:52;22.10;41.50
72576;DHT22;60613;48.658;2.328;2023-04-25T15:32:18;22.10;41.30
72576;DHT22;60613;48.658;2.328;2023-04-25T15:34:44;22.10;41.70
72576;DHT22;60613;48.658;2.328;2023-04-25T15:37:09;22.10;41.70
72576;DHT22;60613;48.658;2.328;2023-04-25T15:39:35;22.10;41.60
72576;DHT22;60613;48.658;2.328;2023-04-25T15:42:00;22.10;41.70
72576;DHT22;60613;48.658;2.328;2023-04-25T15:44:26;22.10;41.80
72576;DHT22;60613;48.658;2.328;2023-04-25T15:46:52;22.10;41.80
72576;DHT22;60613;48.658;2.328;2023-04-25T15:49:18;22.10;41.80
72576;DHT22;60613;48.658;2.328;2023-04-25T15:51:46;22.10;41.90
72576;DHT22;60613;48.658;2.328;2023-04-25T15:54:12;22.10;41.80
72576;DHT22;60613;48.658;2.328;2023-04-25T15:56:38;22.10;42.00
72576;DHT22;60613;48.658;2.328;2023-04-25T15:59:04;22.10;41.90
72576;DHT22;60613;48.658;2.328;2023-04-25T16:01:29;22.10;42.00
72576;DHT22;60613;48.658;2.328;2023-04-25T16:03:56;22.10;41.90
72576;DHT22;60613;48.658;2.328;2023-04-25T16:06:25;22.10;41.80
72576;DHT22;60613;48.658;2.328;2023-04-25T16:08:51;22.10;43.10
72576;DHT22;60613;48.658;2.328;2023-04-25T16:11:18;22.10;42.10
72576;DHT22;60613;48.658;2.328;2023-04-25T16:13:44;22.10;43.10
72576;DHT22;60613;48.658;2.328;2023-04-25T16:16:10;22.10;42.00
72576;DHT22;60613;48.658;2.328;2023-04-25T16:18:35;22.10;42.00
72576;DHT22;60613;48.658;2.328;2023-04-25T16:21:02;22.10;42.10
72576;DHT22;60613;48.658;2.328;2023-04-25T16:23:28;22.10;42.20
72576;DHT22;60613;48.658;2.328;2023-04-25T16:25:53;22.10;42.20
72576;DHT22;60613;48.658;2.328;2023-04-25T16:28:19;22.10;42.10
72576;DHT22;60613;48.658;2.328;2023-04-25T16:30:45;22.10;42.00
72576;DHT22;60613;48.658;2.328;2023-04-25T16:33:11;22.10;41.90
72576;DHT22;60613;48.658;2.328;2023-04-25T16:35:36;22.10;42.00
72576;DHT22;60613;48.658;2.328;2023-04-25T16:38:02;22.10;41.90
72576;DHT22;60613;48.658;2.328;2023-04-25T16:40:28;22.10;41.90
72576;DHT22;60613;48.658;2.328;2023-04-25T16:42:53;22.10;41.80
72576;DHT22;60613;48.658;2.328;2023-04-25T16:45:20;22.10;41.90
72576;DHT22;60613;48.658;2.328;2023-04-25T16:47:45;22.10;41.80
72576;DHT22;60613;48.658;2.328;2023-04-25T16:50:14;22.20;41.70
72576;DHT22;60613;48.658;2.328;2023-04-25T16:52:40;22.10;42.00
72576;DHT22;60613;48.658;2.328;2023-04-25T16:55:06;22.20;41.80
72576;DHT22;60613;48.658;2.328;2023-04-25T16:57:34;22.20;41.80
72576;DHT22;60613;48.658;2.328;2023-04-25T17:00:00;22.20;41.70
72576;DHT22;60613;48.658;2.328;2023-04-25T17:02:26;22.20;41.60
72576;DHT22;60613;48.658;2.328;2023-04-25T17:04:52;22.20;41.50
72576;DHT22;60613;48.658;2.328;2023-04-25T17:07:18;22.20;41.50
72576;DHT22;60613;48.658;2.328;2023-04-25T17:09:49;22.20;41.50
72576;DHT22;60613;48.658;2.328;2023-04-25T17:12:15;22.20;41.30
72576;DHT22;60613;48.658;2.328;2023-04-25T17:14:41;22.20;41.40
72576;DHT22;60613;48.658;2.328;2023-04-25T17:17:07;22.20;41.50
72576;DHT22;60613;48.658;2.328;2023-04-25T17:19:33;22.30;41.80
72576;DHT22;60613;48.658;2.328;2023-04-25T17:21:58;22.40;41.80
72576;DHT22;60613;48.658;2.328;2023-04-25T17:24:24;22.40;41.30
72576;DHT22;60613;48.658;2.328;2023-04-25T17:26:50;22.40;40.60
72576;DHT22;60613;48.658;2.328;2023-04-25T17:29:16;22.40;40.80
72576;DHT22;60613;48.658;2.328;2023-04-25T17:31:42;22.40;40.90
72576;DHT22;60613;48.658;2.328;2023-04-25T17:34:08;22.40;40.40
72576;DHT22;60613;48.658;2.328;2023-04-25T17:36:34;22.40;40.50
72576;DHT22;60613;48.658;2.328;2023-04-25T17:38:59;22.40;40.70
72576;DHT22;60613;48.658;2.328;2023-04-25T17:41:25;22.40;40.70
72576;DHT22;60613;48.658;2.328;2023-04-25T17:43:51;22.40;40.70
72576;DHT22;60613;48.658;2.328;2023-04-25T17:46:17;22.40;40.60
72576;DHT22;60613;48.658;2.328;2023-04-25T17:48:42;22.40;40.50
72576;DHT22;60613;48.658;2.328;2023-04-25T17:51:08;22.40;40.50
72576;DHT22;60613;48.658;2.328;2023-04-25T17:53:34;22.40;40.50
72576;DHT22;60613;48.658;2.328;2023-04-25T17:56:01;22.40;40.40
72576;DHT22;60613;48.658;2.328;2023-04-25T17:58:26;22.40;40.40
72576;DHT22;60613;48.658;2.328;2023-04-25T18:00:52;22.40;40.30
72576;DHT22;60613;48.658;2.328;2023-04-25T18:03:17;22.40;40.30
72576;DHT22;60613;48.658;2.328;2023-04-25T18:05:43;22.40;40.30
72576;DHT22;60613;48.658;2.328;2023-04-25T18:08:09;22.40;40.30
72576;DHT22;60613;48.658;2.328;2023-04-25T18:10:35;22.40;40.10
72576;DHT22;60613;48.658;2.328;2023-04-25T18:13:00;22.40;40.00
72576;DHT22;60613;48.658;2.328;2023-04-25T18:15:26;22.40;40.10
72576;DHT22;60613;48.658;2.328;2023-04-25T18:17:53;22.40;40.10
72576;DHT22;60613;48.658;2.328;2023-04-25T18:20:18;22.40;40.30
72576;DHT22;60613;48.658;2.328;2023-04-25T18:22:44;22.40;40.40
72576;DHT22;60613;48.658;2.328;2023-04-25T18:25:11;22.40;40.50
72576;DHT22;60613;48.658;2.328;2023-04-25T18:27:38;22.40;40.50
72576;DHT22;60613;48.658;2.328;2023-04-25T18:30:05;22.40;40.30
72576;DHT22;60613;48.658;2.328;2023-04-25T18:32:31;22.40;40.50
72576;DHT22;60613;48.658;2.328;2023-04-25T18:34:57;22.50;40.20
72576;DHT22;60613;48.658;2.328;2023-04-25T18:37:23;22.40;40.10
72576;DHT22;60613;48.658;2.328;2023-04-25T18:39:49;22.40;39.90
72576;DHT22;60613;48.658;2.328;2023-04-25T18:42:14;22.50;39.30
72576;DHT22;60613;48.658;2.328;2023-04-25T18:44:41;22.50;39.40
72576;DHT22;60613;48.658;2.328;2023-04-25T18:47:07;22.40;39.50
72576;DHT22;60613;48.658;2.328;2023-04-25T18:49:34;22.50;39.80
72576;DHT22;60613;48.658;2.328;2023-04-25T18:52:02;22.50;39.80
72576;DHT22;60613;48.658;2.328;2023-04-25T18:54:28;22.50;39.80
72576;DHT22;60613;48.658;2.328;2023-04-25T18:56:53;22.50;39.30
72576;DHT22;60613;48.658;2.328;2023-04-25T18:59:21;22.40;38.40
72576;DHT22;60613;48.658;2.328;2023-04-25T19:01:47;22.40;37.90
72576;DHT22;60613;48.658;2.328;2023-04-25T19:04:14;22.40;37.20
72576;DHT22;60613;48.658;2.328;2023-04-25T19:06:40;22.40;37.00
72576;DHT22;60613;48.658;2.328;2023-04-25T19:09:05;22.30;37.10
72576;DHT22;60613;48.658;2.328;2023-04-25T19:11:32;22.30;36.60
72576;DHT22;60613;48.658;2.328;2023-04-25T19:13:58;22.30;36.50
72576;DHT22;60613;48.658;2.328;2023-04-25T19:16:25;22.30;37.10
72576;DHT22;60613;48.658;2.328;2023-04-25T19:18:53;22.30;37.10
72576;DHT22;60613;48.658;2.328;2023-04-25T19:21:19;22.30;37.60
72576;DHT22;60613;48.658;2.328;2023-04-25T19:23:45;22.40;37.70
72576;DHT22;60613;48.658;2.328;2023-04-25T19:26:11;22.40;37.80
72576;DHT22;60613;48.658;2.328;2023-04-25T19:28:36;22.40;37.90
72576;DHT22;60613;48.658;2.328;2023-04-25T19:31:03;22.30;38.00
72576;DHT22;60613;48.658;2.328;2023-04-25T19:33:29;22.30;38.10
72576;DHT22;60613;48.658;2.328;2023-04-25T19:35:55;22.40;37.90
72576;DHT22;60613;48.658;2.328;2023-04-25T19:38:21;22.50;37.90
72576;DHT22;60613;48.658;2.328;2023-04-25T19:40:47;22.50;38.00
72576;DHT22;60613;48.658;2.328;2023-04-25T19:43:13;22.50;37.70
72576;DHT22;60613;48.658;2.328;2023-04-25T19:45:38;22.50;37.70
72576;DHT22;60613;48.658;2.328;2023-04-25T19:48:04;22.50;37.70
72576;DHT22;60613;48.658;2.328;2023-04-25T19:50:30;22.50;37.80
72576;DHT22;60613;48.658;2.328;2023-04-25T19:52:57;22.50;38.00
72576;DHT22;60613;48.658;2.328;2023-04-25T19:55:22;22.40;37.90
72576;DHT22;60613;48.658;2.328;2023-04-25T19:57:49;22.40;37.90
72576;DHT22;60613;48.658;2.328;2023-04-25T20:00:15;22.30;38.20
72576;DHT22;60613;48.658;2.328;2023-04-25T20:02:43;22.20;38.40
72576;DHT22;60613;48.658;2.328;2023-04-25T20:05:14;22.20;38.60
72576;DHT22;60613;48.658;2.328;2023-04-25T20:07:40;22.10;38.60
72576;DHT22;60613;48.658;2.328;2023-04-25T20:10:07;22.10;38.60
72576;DHT22;60613;48.658;2.328;2023-04-25T20:12:36;22.10;38.80
72576;DHT22;60613;48.658;2.328;2023-04-25T20:15:02;22.10;38.90
72576;DHT22;60613;48.658;2.328;2023-04-25T20:17:28;22.00;38.90
72576;DHT22;60613;48.658;2.328;2023-04-25T20:19:54;22.00;39.00
72576;DHT22;60613;48.658;2.328;2023-04-25T20:22:20;22.00;39.10
72576;DHT22;60613;48.658;2.328;2023-04-25T20:24:46;21.90;39.10
72576;DHT22;60613;48.658;2.328;2023-04-25T20:27:11;21.90;39.30
72576;DHT22;60613;48.658;2.328;2023-04-25T20:29:37;21.80;39.30
72576;DHT22;60613;48.658;2.328;2023-04-25T20:32:02;21.80;38.50
72576;DHT22;60613;48.658;2.328;2023-04-25T20:34:28;21.80;39.40
72576;DHT22;60613;48.658;2.328;2023-04-25T20:36:55;21.80;39.60
72576;DHT22;60613;48.658;2.328;2023-04-25T20:39:22;21.70;39.50
72576;DHT22;60613;48.658;2.328;2023-04-25T20:41:47;21.80;39.70
72576;DHT22;60613;48.658;2.328;2023-04-25T20:44:13;21.80;39.60
72576;DHT22;60613;48.658;2.328;2023-04-25T20:46:40;21.80;39.80
72576;DHT22;60613;48.658;2.328;2023-04-25T20:49:06;21.70;39.70
72576;DHT22;60613;48.658;2.328;2023-04-25T20:51:32;21.70;39.70
72576;DHT22;60613;48.658;2.328;2023-04-25T20:53:58;21.70;39.80
72576;DHT22;60613;48.658;2.328;2023-04-25T20:56:24;21.70;39.90
72576;DHT22;60613;48.658;2.328;2023-04-25T20:58:51;21.70;39.80
72576;DHT22;60613;48.658;2.328;2023-04-25T21:01:21;21.70;39.80
72576;DHT22;60613;48.658;2.328;2023-04-25T21:03:46;21.70;39.70
72576;DHT22;60613;48.658;2.328;2023-04-25T21:06:13;21.70;39.70
72576;DHT22;60613;48.658;2.328;2023-04-25T21:08:39;21.70;39.80
72576;DHT22;60613;48.658;2.328;2023-04-25T21:11:04;21.70;39.70
72576;DHT22;60613;48.658;2.328;2023-04-25T21:13:30;21.70;39.70
72576;DHT22;60613;48.658;2.328;2023-04-25T21:15:56;21.70;40.10
72576;DHT22;60613;48.658;2.328;2023-04-25T21:18:22;21.80;40.10
